Terminal Aerodrome Forecast
Issued by NWS

Home | Current Version | Previous Version | Text Only | Print | Product List | Glossary On
Versions: 1 2 3 4 5 6 7 8 9 10 11 12 13 14 15 16 17 18 19
850
FTUS43 KPAH 102339
TAFCGI
TAF
KCGI 102339Z 1100/1124 15004KT P6SM BKN050
     FM110130 13004KT P6SM FEW045 SCT070
     FM111300 04007KT P6SM SKC=

USA.gov is the U.S. government's official web portal to all federal, state and local government web resources and services.